Time;durP1;ratioP1;P1;durP2;ratioP2;P2;SDS_P1;SDS_P2;PMS_P1;PMS_P2;Temp;Humidity;BMP_temperature;BMP_pressure;BME280_temperature;BME280_humidity;BME280_pressure;Samples;Min_cycle;Max_cycle;Signal;HPM_P1;HPM_P2
2022/11/13 00:02:28;;;;;;;19.40;13.40;;;;;;;3.92;93.92;98142.73;105199;1303;24332;-78
2022/11/13 00:04:59;;;;;;;18.50;12.80;;;;;;;3.97;93.92;98143.89;105191;1303;22499;-78
2022/11/13 00:07:30;;;;;;;18.10;13.40;;;;;;;4.08;94.29;98139.52;104257;1304;1194187;-77
2022/11/13 00:10:02;;;;;;;17.60;12.20;;;;;;;4.15;94.23;98136.14;105182;1295;25449;-77
2022/11/13 00:12:33;;;;;;;18.00;12.30;;;;;;;4.19;94.04;98130.61;105182;1286;25294;-78
2022/11/13 00:15:08;;;;;;;15.60;11.30;;;;;;;4.20;93.79;98131.77;105192;1292;22444;-78
2022/11/13 00:17:42;;;;;;;18.20;12.20;;;;;;;4.17;93.64;98129.59;105164;1304;22457;-78
2022/11/13 00:20:14;;;;;;;17.60;11.70;;;;;;;4.18;93.37;98134.00;105178;1285;24911;-78
2022/11/13 00:22:45;;;;;;;14.40;10.90;;;;;;;4.19;93.54;98130.25;105199;1309;23002;-77
2022/11/13 00:25:17;;;;;;;16.50;10.60;;;;;;;4.19;93.29;98126.56;105161;1304;22478;-78
2022/11/13 00:27:50;;;;;;;15.10;10.30;;;;;;;4.17;93.16;98128.27;105140;1304;22496;-77
2022/11/13 00:30:22;;;;;;;15.00;10.20;;;;;;;4.19;93.47;98126.13;105197;1301;22630;-78
2022/11/13 00:32:53;;;;;;;15.60;10.80;;;;;;;4.23;93.97;98125.25;105173;1288;25299;-77
2022/11/13 00:35:24;;;;;;;17.20;11.00;;;;;;;4.25;93.92;98127.08;105186;1295;25254;-77
2022/11/13 00:37:56;;;;;;;15.60;11.00;;;;;;;4.28;94.27;98128.36;105150;1289;23310;-78
2022/11/13 00:40:29;;;;;;;16.90;11.20;;;;;;;4.36;94.44;98124.22;105150;1304;24318;-77
2022/11/13 00:43:00;;;;;;;16.20;10.50;;;;;;;4.38;94.34;98120.09;105181;1295;25454;-77
2022/11/13 00:45:32;;;;;;;16.40;11.00;;;;;;;4.34;93.97;98125.49;105207;1296;22503;-77
2022/11/13 00:48:03;;;;;;;15.10;11.10;;;;;;;4.37;94.36;98121.14;105147;1295;25429;-78
2022/11/13 00:50:34;;;;;;;15.20;11.00;;;;;;;4.42;94.27;98125.15;105167;1296;22476;-77
2022/11/13 00:53:05;;;;;;;15.20;9.50;;;;;;;4.36;93.78;98118.23;105148;1304;22494;-78
2022/11/13 00:55:38;;;;;;;13.50;9.90;;;;;;;4.25;93.48;98112.82;105159;1304;22459;-77
2022/11/13 00:58:10;;;;;;;14.90;10.00;;;;;;;4.16;93.20;98112.16;105091;1306;27213;-78
2022/11/13 01:00:42;;;;;;;13.90;10.00;;;;;;;4.11;93.41;98110.55;105115;1299;22461;-77
2022/11/13 01:03:16;;;;;;;15.30;10.80;;;;;;;4.15;93.86;98110.09;105185;1299;23838;-78
2022/11/13 01:05:48;;;;;;;15.80;10.10;;;;;;;4.12;93.38;98104.81;105212;1302;22463;-78
2022/11/13 01:08:22;;;;;;;17.50;10.90;;;;;;;4.03;92.87;98102.39;105070;1301;40040;-77
2022/11/13 01:10:54;;;;;;;13.80;10.10;;;;;;;3.98;92.80;98097.16;105172;1304;22520;-78
2022/11/13 01:13:25;;;;;;;16.40;11.90;;;;;;;3.97;92.63;98096.63;105177;1304;22515;-77
2022/11/13 01:15:56;;;;;;;17.50;11.70;;;;;;;3.93;92.42;98094.84;105169;1304;22466;-77
2022/11/13 01:18:27;;;;;;;15.00;10.80;;;;;;;3.91;92.29;98089.38;105061;1303;23543;-78
2022/11/13 01:21:07;;;;;;;15.30;9.60;;;;;;;3.88;92.08;98091.32;105151;1288;22928;-78
2022/11/13 01:23:38;;;;;;;16.00;11.00;;;;;;;3.83;91.82;98087.89;105161;1288;22468;-78
2022/11/13 01:26:14;;;;;;;15.80;10.60;;;;;;;3.78;91.57;98085.96;105190;1302;22455;-77
2022/11/13 01:28:47;;;;;;;14.60;9.50;;;;;;;3.73;91.63;98080.51;105209;1304;22467;-78
2022/11/13 01:31:19;;;;;;;17.20;10.20;;;;;;;3.74;91.61;98084.59;105184;1304;22482;-77
2022/11/13 01:33:51;;;;;;;12.30;9.30;;;;;;;3.70;91.39;98081.55;105180;1304;24289;-77
2022/11/13 01:36:24;;;;;;;14.40;9.70;;;;;;;3.64;91.29;98079.88;105130;1304;27401;-77
2022/11/13 01:38:56;;;;;;;15.50;9.50;;;;;;;3.59;91.20;98077.21;105196;1298;24557;-77
2022/11/13 01:41:29;;;;;;;12.70;8.10;;;;;;;3.58;91.35;98076.23;105178;1292;22472;-77
2022/11/13 01:44:01;;;;;;;11.20;7.60;;;;;;;3.57;91.50;98075.63;105217;1304;22466;-77
2022/11/13 01:46:34;;;;;;;12.20;7.00;;;;;;;3.58;91.54;98076.60;105105;1303;22496;-77
2022/11/13 01:49:20;;;;;;;10.90;7.60;;;;;;;3.60;91.45;98082.17;105205;1294;22441;-78
2022/11/13 01:51:56;;;;;;;14.20;8.50;;;;;;;3.58;91.09;98083.86;105175;1282;25440;-77
2022/11/13 01:54:29;;;;;;;13.20;9.50;;;;;;;3.50;90.94;98083.47;105181;1305;22480;-78
2022/11/13 01:57:02;;;;;;;14.10;10.80;;;;;;;3.45;90.75;98087.40;105144;1304;23594;-78
2022/11/13 01:59:37;;;;;;;13.30;10.00;;;;;;;3.45;90.76;98089.54;105158;1282;22502;-78
2022/11/13 02:02:08;;;;;;;14.10;10.70;;;;;;;3.43;90.78;98096.08;105161;1298;22474;-77
2022/11/13 02:04:40;;;;;;;15.30;11.10;;;;;;;3.33;90.49;98094.65;105175;1288;22461;-77
2022/11/13 02:07:14;;;;;;;66.50;13.30;;;;;;;3.14;90.00;98095.61;105136;1304;26407;-77
2022/11/13 02:09:47;;;;;;;62.50;12.90;;;;;;;2.79;89.27;98098.42;105234;1304;22488;-77
2022/11/13 02:12:22;;;;;;;49.70;14.00;;;;;;;2.38;88.83;98100.88;105180;1304;22546;-77
2022/11/13 02:14:55;;;;;;;55.60;14.60;;;;;;;2.18;89.12;98096.89;105175;1297;22469;-77
2022/11/13 02:17:31;;;;;;;36.90;14.60;;;;;;;1.98;89.42;98096.39;105209;1288;25387;-77
2022/11/13 02:20:04;;;;;;;31.50;15.00;;;;;;;1.95;90.38;98092.21;105175;1293;22481;-77
2022/11/13 02:22:41;;;;;;;28.20;15.00;;;;;;;2.12;91.09;98098.04;105159;1281;22614;-77
2022/11/13 02:25:14;;;;;;;40.60;14.40;;;;;;;2.20;91.00;98102.95;105195;1295;22685;-77
2022/11/13 02:27:47;;;;;;;31.20;12.00;;;;;;;2.11;90.61;98098.44;105142;1304;22466;-77
2022/11/13 02:30:22;;;;;;;34.10;12.80;;;;;;;1.84;90.41;98098.66;105170;1289;22467;-77
2022/11/13 02:32:55;;;;;;;35.60;13.00;;;;;;;1.63;90.66;98099.11;105151;1291;25239;-77
2022/11/13 02:35:29;;;;;;;19.60;13.10;;;;;;;1.55;90.89;98101.86;105165;1304;22477;-77
2022/11/13 02:38:05;;;;;;;22.90;12.20;;;;;;;1.58;91.49;98096.13;105128;1303;24430;-77
2022/11/13 02:40:37;;;;;;;27.30;12.70;;;;;;;1.56;91.76;98099.69;105195;1303;22466;-77
2022/11/13 02:43:14;;;;;;;31.80;12.60;;;;;;;1.48;91.93;98102.48;105184;1303;24241;-77
2022/11/13 02:45:45;;;;;;;27.20;12.50;;;;;;;1.46;92.32;98103.63;105187;1303;22473;-77
2022/11/13 02:48:17;;;;;;;28.60;14.70;;;;;;;1.44;92.69;98102.98;105140;1303;22461;-77
2022/11/13 02:50:48;;;;;;;27.30;13.90;;;;;;;1.49;93.12;98098.52;105190;1281;24338;-77
2022/11/13 02:53:19;;;;;;;23.50;12.70;;;;;;;1.62;93.77;98101.48;105173;1303;22486;-77
2022/11/13 02:55:50;;;;;;;18.60;12.70;;;;;;;1.61;93.54;98098.70;105178;1297;24291;-77
2022/11/13 02:58:21;;;;;;;20.30;12.70;;;;;;;1.56;93.98;98098.73;105138;1295;22964;-77
2022/11/13 03:00:52;;;;;;;28.40;14.00;;;;;;;1.54;94.25;98096.55;105197;1303;25496;-77
2022/11/13 03:03:24;;;;;;;20.70;12.90;;;;;;;1.53;94.36;98097.47;105170;1303;22448;-77
2022/11/13 03:05:55;;;;;;;19.20;13.40;;;;;;;1.52;94.71;98098.66;105154;1285;22482;-77
2022/11/13 03:08:26;;;;;;;27.90;13.70;;;;;;;1.52;94.75;98100.14;105112;1297;22686;-77
2022/11/13 03:11:00;;;;;;;24.60;14.10;;;;;;;1.54;95.15;98102.27;105184;1303;22629;-77
2022/11/13 03:13:31;;;;;;;28.10;14.50;;;;;;;1.62;95.56;98104.27;105168;1298;22461;-77
2022/11/13 03:16:11;;;;;;;24.70;12.80;;;;;;;1.75;95.88;98103.72;105193;1303;22466;-77
2022/11/13 03:18:40;;;;;;;;;;;;;;;1.81;95.65;98103.92;105184;1304;34488;-77
2022/11/13 03:21:15;;;;;;;23.30;13.00;;;;;;;1.83;95.75;98105.83;105162;1291;22462;-77
2022/11/13 03:23:46;;;;;;;25.90;13.20;;;;;;;1.94;96.11;98103.41;105202;1304;22463;-77
2022/11/13 03:26:18;;;;;;;15.60;12.80;;;;;;;1.97;95.82;98106.60;105132;1304;22472;-76
2022/11/13 03:28:50;;;;;;;17.30;12.30;;;;;;;1.99;95.71;98108.64;105154;1304;22461;-77
2022/11/13 03:31:21;;;;;;;21.00;13.10;;;;;;;1.98;95.30;98107.08;105173;1288;23226;-77
2022/11/13 03:33:54;;;;;;;23.50;12.40;;;;;;;1.93;95.18;98109.92;105153;1297;24443;-77
2022/11/13 03:36:25;;;;;;;19.40;10.50;;;;;;;1.96;95.38;98104.31;105114;1304;25496;-77
2022/11/13 03:38:56;;;;;;;15.00;11.20;;;;;;;1.90;94.85;98103.83;105150;1304;23374;-77
2022/11/13 03:41:27;;;;;;;15.40;11.40;;;;;;;1.75;94.75;98107.61;105137;1298;22472;-77
2022/11/13 03:43:59;;;;;;;13.90;9.50;;;;;;;1.67;94.70;98100.31;105147;1289;22480;-77
2022/11/13 03:46:30;;;;;;;17.20;10.80;;;;;;;1.61;94.51;98100.75;105123;1284;22482;-77
2022/11/13 03:49:01;;;;;;;17.90;10.50;;;;;;;1.47;94.26;98100.52;105188;1297;25685;-77
2022/11/13 03:51:32;;;;;;;17.00;10.70;;;;;;;1.36;94.26;98098.16;105157;1298;22494;-77
2022/11/13 03:54:03;;;;;;;14.60;10.10;;;;;;;1.24;94.00;98100.69;105127;1303;22465;-78
2022/11/13 03:56:35;;;;;;;12.20;9.00;;;;;;;1.15;94.23;98093.20;105139;1303;22487;-77
2022/11/13 03:59:06;;;;;;;15.00;10.10;;;;;;;1.04;94.38;98092.58;105121;1303;22465;-78
2022/11/13 04:01:37;;;;;;;13.70;9.40;;;;;;;0.90;94.64;98090.23;105149;1288;22529;-77
2022/11/13 04:04:10;;;;;;;16.60;10.10;;;;;;;0.80;94.93;98087.75;105170;1297;22512;-77
2022/11/13 04:06:41;;;;;;;15.40;10.80;;;;;;;0.70;95.02;98089.33;105128;1295;22481;-77
2022/11/13 04:09:12;;;;;;;17.20;10.70;;;;;;;0.63;95.39;98082.65;105168;1281;22484;-78
2022/11/13 04:11:43;;;;;;;15.20;11.30;;;;;;;0.58;95.36;98081.13;105205;1295;22461;-78
2022/11/13 04:14:14;;;;;;;13.40;10.90;;;;;;;0.55;95.50;98085.25;105163;1281;22470;-78
2022/11/13 04:16:45;;;;;;;17.90;12.10;;;;;;;0.62;95.60;98087.81;105138;1291;26614;-77
2022/11/13 04:19:18;;;;;;;16.60;11.50;;;;;;;0.74;95.98;98088.08;105178;1302;22532;-77
2022/11/13 04:21:49;;;;;;;14.20;11.00;;;;;;;0.86;95.86;98090.70;105165;1287;25219;-78
2022/11/13 04:24:21;;;;;;;14.90;9.70;;;;;;;0.92;95.70;98091.25;105172;1294;22523;-77
2022/11/13 04:26:52;;;;;;;13.10;10.50;;;;;;;1.04;95.70;98093.66;105132;1303;23481;-77
2022/11/13 04:29:23;;;;;;;12.50;10.00;;;;;;;1.14;95.53;98099.38;105182;1288;25253;-77
2022/11/13 04:31:56;;;;;;;11.70;9.10;;;;;;;1.19;95.20;98102.58;105149;1302;22561;-77
2022/11/13 04:34:27;;;;;;;12.50;9.50;;;;;;;1.16;94.75;98098.09;105173;1296;22478;-78
2022/11/13 04:36:58;;;;;;;12.20;9.60;;;;;;;1.17;94.42;98096.81;105143;1299;22512;-77
2022/11/13 04:39:29;;;;;;;13.20;9.40;;;;;;;1.18;94.32;98099.19;105167;1295;22477;-77
2022/11/13 04:44:57;;;;;;;17.20;10.90;;;;;;;1.17;93.96;98100.27;105146;1303;22465;-78
2022/11/13 04:47:28;;;;;;;37.20;11.00;;;;;;;1.09;93.73;98096.48;105123;1303;24550;-78
2022/11/13 04:49:59;;;;;;;45.10;10.80;;;;;;;1.06;93.59;98104.46;105161;1298;25348;-77
2022/11/13 04:52:30;;;;;;;53.30;11.50;;;;;;;1.01;93.59;98112.75;105166;1290;22508;-77
2022/11/13 04:55:02;;;;;;;17.90;11.30;;;;;;;0.95;93.83;98108.84;105199;1298;22456;-77
2022/11/13 04:57:35;;;;;;;13.80;10.30;;;;;;;0.97;94.23;98110.77;105098;1304;24413;-77
2022/11/13 05:00:09;;;;;;;24.00;13.30;;;;;;;0.89;93.75;98108.27;105153;1288;22504;-77
2022/11/13 05:02:40;;;;;;;23.00;12.20;;;;;;;0.78;93.96;98112.38;105204;1282;22479;-77
2022/11/13 05:05:12;;;;;;;22.90;12.70;;;;;;;0.68;94.35;98106.60;105155;1287;22463;-77
2022/11/13 05:07:43;;;;;;;25.70;11.70;;;;;;;0.63;94.63;98107.77;105161;1303;22582;-77
2022/11/13 05:10:17;;;;;;;23.60;13.20;;;;;;;0.61;95.14;98110.05;105170;1300;24243;-77
2022/11/13 05:12:49;;;;;;;24.60;13.70;;;;;;;0.66;95.30;98108.23;105180;1297;22534;-78
2022/11/13 05:15:20;;;;;;;22.70;13.70;;;;;;;0.75;95.27;98105.08;105208;1289;22462;-77
2022/11/13 05:17:53;;;;;;;23.00;12.80;;;;;;;0.87;95.72;98109.86;105146;1302;26045;-77
2022/11/13 05:20:24;;;;;;;23.10;13.00;;;;;;;0.99;95.71;98104.04;105161;1304;23054;-77
2022/11/13 05:22:55;;;;;;;28.10;11.00;;;;;;;0.98;95.33;98109.89;105192;1298;22502;-77
2022/11/13 05:25:26;;;;;;;30.90;11.00;;;;;;;0.93;95.26;98109.17;105145;1305;22525;-77
2022/11/13 05:27:58;;;;;;;35.10;12.70;;;;;;;0.94;95.29;98114.82;105111;1288;22477;-77
2022/11/13 05:30:30;;;;;;;29.30;11.70;;;;;;;0.91;95.25;98114.66;105196;1296;22520;-78
2022/11/13 05:33:01;;;;;;;29.70;11.70;;;;;;;0.88;95.38;98116.95;105151;1297;22492;-77
2022/11/13 05:35:32;;;;;;;40.30;11.70;;;;;;;0.89;95.60;98119.29;105164;1292;25209;-77
2022/11/13 05:38:04;;;;;;;24.60;12.20;;;;;;;0.93;95.92;98122.07;105102;1291;25244;-77
2022/11/13 05:40:36;;;;;;;35.60;11.60;;;;;;;1.02;96.02;98125.89;105125;1305;22473;-77
2022/11/13 05:43:07;;;;;;;20.40;11.30;;;;;;;1.17;96.41;98125.46;105177;1291;22548;-77
2022/11/13 05:45:38;;;;;;;29.10;11.50;;;;;;;1.31;96.55;98119.40;105164;1298;22768;-77
2022/11/13 05:48:10;;;;;;;32.60;10.90;;;;;;;1.40;96.74;98122.09;105109;1282;22484;-77
2022/11/13 05:50:41;;;;;;;25.30;8.80;;;;;;;1.45;96.47;98116.94;105172;1281;22485;-77
2022/11/13 05:53:13;;;;;;;23.40;8.60;;;;;;;1.35;96.15;98109.60;105149;1306;22503;-77
2022/11/13 05:55:44;;;;;;;20.40;7.50;;;;;;;1.30;96.10;98107.81;105159;1290;22501;-77
2022/11/13 05:58:15;;;;;;;17.10;8.00;;;;;;;1.13;95.86;98107.52;105124;1304;22924;-77
2022/11/13 06:00:47;;;;;;;9.40;7.10;;;;;;;1.00;95.88;98100.95;105238;1296;22496;-77
2022/11/13 06:03:20;;;;;;;11.20;6.80;;;;;;;0.79;96.37;98099.52;105206;1284;25283;-77
2022/11/13 06:05:52;;;;;;;12.50;7.00;;;;;;;0.62;96.32;98089.26;105194;1298;22490;-77
2022/11/13 06:08:24;;;;;;;13.70;7.20;;;;;;;0.50;96.83;98094.09;105206;1298;22588;-77
2022/11/13 06:11:00;;;;;;;10.50;6.60;;;;;;;0.43;97.17;98090.82;105159;1281;22489;-78
2022/11/13 06:13:33;;;;;;;13.80;7.90;;;;;;;0.38;97.42;98086.08;105204;1304;25468;-77
2022/11/13 06:16:07;;;;;;;17.00;7.50;;;;;;;0.41;97.62;98084.13;105172;1296;22465;-77
2022/11/13 06:18:41;;;;;;;13.90;8.80;;;;;;;0.51;97.62;98084.16;105197;1303;34097;-78
2022/11/13 06:21:16;;;;;;;12.30;7.70;;;;;;;0.68;97.98;98076.17;105213;1303;22464;-77
2022/11/13 06:23:48;;;;;;;16.70;9.50;;;;;;;0.86;97.78;98076.14;105165;1288;26716;-77
2022/11/13 06:26:21;;;;;;;13.20;9.80;;;;;;;1.03;97.76;98074.89;105145;1275;25252;-78
2022/11/13 06:28:54;;;;;;;12.20;8.90;;;;;;;1.23;97.49;98075.90;105163;1303;25321;-78
2022/11/13 06:31:27;;;;;;;11.50;8.90;;;;;;;1.48;97.53;98071.58;105186;1281;24713;-77
2022/11/13 06:34:01;;;;;;;12.10;9.00;;;;;;;1.78;97.15;98070.77;105190;1303;22503;-78
2022/11/13 06:36:35;;;;;;;12.00;9.70;;;;;;;2.05;96.80;98071.85;105154;1291;22463;-78
2022/11/13 06:39:09;;;;;;;12.40;9.60;;;;;;;2.51;96.65;98064.21;105171;1304;25655;-78
2022/11/13 06:41:41;;;;;;;11.10;9.30;;;;;;;3.13;97.09;98063.60;105163;1290;24034;-78
2022/11/13 06:44:13;;;;;;;11.90;9.70;;;;;;;3.78;96.93;98064.54;105160;1304;23097;-78
2022/11/13 06:46:44;;;;;;;12.40;10.60;;;;;;;4.44;96.48;98061.67;105152;1278;25305;-78
2022/11/13 06:49:16;;;;;;;10.90;9.10;;;;;;;5.19;95.64;98059.45;105173;1288;23718;-79
2022/11/13 06:51:48;;;;;;;11.00;9.30;;;;;;;5.84;94.15;98054.58;105145;1304;22463;-79
2022/11/13 06:54:22;;;;;;;10.10;8.00;;;;;;;6.36;92.98;98051.43;105159;1304;22511;-79
2022/11/13 06:56:55;;;;;;;10.80;8.60;;;;;;;7.09;93.22;98053.15;105143;1277;22675;-79
2022/11/13 06:59:27;;;;;;;11.10;9.80;;;;;;;7.82;92.43;98051.61;105158;1304;25433;-79
2022/11/13 07:01:59;;;;;;;12.10;10.20;;;;;;;8.24;90.70;98048.83;105202;1302;22472;-79
2022/11/13 07:04:33;;;;;;;12.90;10.30;;;;;;;8.78;90.52;98043.31;105181;1278;22479;-79
2022/11/13 07:07:05;;;;;;;13.80;11.00;;;;;;;9.11;88.83;98041.17;105127;1302;22909;-79
2022/11/13 07:09:37;;;;;;;12.90;10.80;;;;;;;9.59;88.18;98040.95;105188;1303;22481;-79
2022/11/13 07:12:11;;;;;;;9.80;8.30;;;;;;;10.11;87.70;98044.11;105200;1290;22581;-79
2022/11/13 07:14:43;;;;;;;9.30;8.00;;;;;;;10.71;86.33;98041.24;105237;1297;22476;-79
2022/11/13 07:17:14;;;;;;;9.70;7.60;;;;;;;11.09;84.81;98042.45;105135;1303;25381;-79
2022/11/13 07:19:45;;;;;;;8.40;7.40;;;;;;;11.33;83.03;98044.34;105203;1294;22559;-80
2022/11/13 07:22:17;;;;;;;9.40;8.00;;;;;;;11.67;82.61;98046.17;105170;1288;25259;-80
2022/11/13 07:24:49;;;;;;;9.50;8.40;;;;;;;12.18;82.35;98040.52;105148;1298;24295;-80
2022/11/13 07:27:20;;;;;;;9.90;8.40;;;;;;;12.60;80.16;98037.53;105118;1284;22515;-80
2022/11/13 07:29:52;;;;;;;10.00;8.70;;;;;;;12.56;78.44;98041.88;105178;1285;22472;-80
2022/11/13 07:32:23;;;;;;;11.10;8.90;;;;;;;12.70;78.06;98036.98;105197;1290;22463;-80
2022/11/13 07:34:57;;;;;;;9.80;8.80;;;;;;;12.74;76.62;98037.64;105159;1293;25325;-80
2022/11/13 07:37:28;;;;;;;10.00;8.90;;;;;;;12.58;74.98;98039.60;105137;1282;22481;-80
2022/11/13 07:40:02;;;;;;;10.60;9.50;;;;;;;12.21;72.46;98037.46;105168;1284;22463;-79
2022/11/13 07:42:37;;;;;;;10.50;9.50;;;;;;;11.81;72.00;98042.60;105191;1289;25382;-79
2022/11/13 07:45:09;;;;;;;10.80;9.70;;;;;;;11.81;73.77;98041.12;105152;1288;22536;-80
2022/11/13 07:47:41;;;;;;;10.30;9.20;;;;;;;12.15;72.95;98042.14;105168;1303;22478;-80
2022/11/13 07:50:12;;;;;;;10.90;9.30;;;;;;;11.85;69.62;98045.79;105167;1305;24341;-79
2022/11/13 07:52:44;;;;;;;10.80;9.40;;;;;;;11.61;71.29;98048.50;105212;1296;22470;-80
2022/11/13 07:55:15;;;;;;;11.40;9.80;;;;;;;11.96;71.87;98054.95;105145;1282;22564;-80
2022/11/13 07:57:47;;;;;;;11.00;9.20;;;;;;;12.15;71.14;98056.09;105131;1304;22469;-80
2022/11/13 08:00:20;;;;;;;11.10;9.80;;;;;;;12.04;69.28;98061.48;105156;1304;23676;-80
2022/11/13 08:02:51;;;;;;;11.80;10.00;;;;;;;11.54;67.60;98057.54;105187;1288;24259;-80
2022/11/13 08:05:23;;;;;;;11.30;9.80;;;;;;;11.27;69.27;98052.55;105189;1297;25365;-80
2022/11/13 08:07:54;;;;;;;11.40;9.40;;;;;;;11.56;70.65;98056.94;105152;1284;25225;-80
2022/11/13 08:10:26;;;;;;;12.20;10.40;;;;;;;11.76;69.62;98055.77;105156;1287;22457;-80
2022/11/13 08:13:02;;;;;;;10.70;9.20;;;;;;;11.43;67.73;98052.80;105183;1304;22486;-80
2022/11/13 08:15:37;;;;;;;11.50;9.70;;;;;;;10.83;68.56;98052.88;105168;1284;22461;-79
2022/11/13 08:18:08;;;;;;;12.40;10.00;;;;;;;10.68;70.30;98059.14;105148;1298;22525;-80
2022/11/13 08:20:39;;;;;;;11.10;9.30;;;;;;;10.80;71.26;98058.30;105183;1301;25341;-80
2022/11/13 08:23:11;;;;;;;11.70;10.30;;;;;;;10.94;71.65;98060.30;105181;1305;22499;-80
2022/11/13 08:25:45;;;;;;;11.60;9.60;;;;;;;10.98;71.71;98057.41;105184;1304;24281;-80
2022/11/13 08:28:16;;;;;;;11.50;9.70;;;;;;;10.88;71.26;98059.32;105101;1303;22729;-80
2022/11/13 08:30:48;;;;;;;13.30;11.60;;;;;;;10.65;71.18;98060.69;105175;1304;25233;-80
2022/11/13 08:33:19;;;;;;;12.20;10.70;;;;;;;10.46;71.20;98063.15;105183;1298;22735;-80
2022/11/13 08:35:58;;;;;;;12.30;10.20;;;;;;;10.19;70.95;98058.09;105126;1288;22485;-80
2022/11/13 08:38:29;;;;;;;12.20;10.60;;;;;;;9.63;70.74;98062.05;105078;1284;22475;-80
2022/11/13 08:41:02;;;;;;;11.20;9.60;;;;;;;9.18;71.86;98065.18;105150;1298;22487;-80
2022/11/13 08:43:33;;;;;;;12.80;10.90;;;;;;;8.89;72.74;98071.48;105132;1296;22508;-80
2022/11/13 08:46:05;;;;;;;14.00;11.80;;;;;;;8.27;73.80;98078.70;105189;1288;22471;-80
2022/11/13 08:48:39;;;;;;;15.30;12.10;;;;;;;7.73;74.87;98082.33;105118;1296;32311;-79
2022/11/13 08:51:10;;;;;;;16.10;13.50;;;;;;;7.29;75.78;98080.31;105176;1304;22507;-79
2022/11/13 08:53:41;;;;;;;15.80;13.60;;;;;;;6.97;77.24;98081.52;105163;1304;22471;-79
2022/11/13 08:56:13;;;;;;;14.40;12.40;;;;;;;6.82;78.29;98082.02;105117;1304;22642;-79
2022/11/13 08:58:45;;;;;;;15.70;12.70;;;;;;;6.75;78.76;98079.45;105181;1304;22517;-79
2022/11/13 09:01:17;;;;;;;14.50;12.60;;;;;;;6.73;79.41;98082.84;105191;1291;22496;-79
2022/11/13 09:03:50;;;;;;;14.80;12.80;;;;;;;6.84;80.43;98079.90;105179;1278;22599;-79
2022/11/13 09:06:22;;;;;;;14.60;12.10;;;;;;;6.96;80.50;98076.41;105105;1281;23642;-78
2022/11/13 09:08:56;;;;;;;13.80;12.30;;;;;;;6.94;80.20;98073.56;105149;1274;22468;-79
2022/11/13 09:11:28;;;;;;;14.30;12.40;;;;;;;6.89;80.59;98071.24;105169;1287;25389;-79
2022/11/13 09:14:00;;;;;;;14.60;12.40;;;;;;;6.90;81.13;98071.23;105185;1281;25889;-79
2022/11/13 09:16:32;;;;;;;15.80;12.70;;;;;;;6.90;81.69;98073.76;105104;1297;27559;-79
2022/11/13 09:19:05;;;;;;;15.20;13.50;;;;;;;6.87;81.96;98069.27;105242;1303;25351;-79
2022/11/13 09:21:36;;;;;;;17.20;13.80;;;;;;;6.84;82.25;98066.42;105213;1303;22483;-79
2022/11/13 09:24:10;;;;;;;19.10;14.40;;;;;;;6.91;82.81;98061.70;105249;1289;25421;-79
2022/11/13 09:26:42;;;;;;;17.30;14.50;;;;;;;7.00;83.14;98056.61;105167;1278;22474;-79
2022/11/13 09:29:13;;;;;;;16.10;14.30;;;;;;;7.09;83.45;98055.14;105178;1291;22480;-79
2022/11/13 09:31:45;;;;;;;16.80;14.60;;;;;;;7.18;83.62;98048.47;105142;1288;22477;-79
2022/11/13 09:34:18;;;;;;;17.30;13.90;;;;;;;7.22;83.38;98050.48;105178;1288;22464;-79
2022/11/13 09:36:49;;;;;;;15.30;13.30;;;;;;;7.26;83.69;98048.41;105181;1303;25258;-79
2022/11/13 09:39:21;;;;;;;16.50;14.10;;;;;;;7.39;84.02;98052.80;105189;1279;25867;-79
2022/11/13 09:41:58;;;;;;;17.50;14.00;;;;;;;7.50;84.06;98050.83;105174;1297;22590;-79
2022/11/13 09:44:37;;;;;;;15.70;13.80;;;;;;;7.72;84.63;98051.79;105168;1297;22482;-79
2022/11/13 09:47:14;;;;;;;16.10;13.90;;;;;;;8.06;85.01;98042.52;105148;1296;22498;-79
2022/11/13 09:49:48;;;;;;;16.80;14.30;;;;;;;8.33;84.19;98042.83;105186;1295;25217;-80
2022/11/13 09:52:31;;;;;;;17.00;14.00;;;;;;;8.39;83.98;98031.77;105222;1289;22536;-79
2022/11/13 09:55:05;;;;;;;16.10;13.50;;;;;;;8.48;83.36;98034.35;105222;1303;22477;-79
2022/11/13 09:57:46;;;;;;;16.70;13.80;;;;;;;8.49;83.23;98035.30;105150;1303;22500;-80
2022/11/13 10:00:20;;;;;;;17.40;14.40;;;;;;;8.47;83.44;98028.10;105245;1282;24330;-80
2022/11/13 10:03:01;;;;;;;16.00;13.70;;;;;;;8.54;83.73;98034.38;105187;1282;22927;-80
2022/11/13 10:05:40;;;;;;;17.40;14.30;;;;;;;8.57;83.36;98037.63;105182;1295;22485;-81
2022/11/13 10:08:16;;;;;;;19.10;15.90;;;;;;;8.55;83.46;98034.31;105161;1302;22468;-80
2022/11/13 10:10:56;;;;;;;22.30;17.50;;;;;;;8.60;83.36;98038.88;105200;1275;22477;-80
2022/11/13 10:13:42;;;;;;;20.50;17.00;;;;;;;8.49;83.11;98035.65;105177;1285;22591;-80
2022/11/13 10:16:21;;;;;;;22.90;18.10;;;;;;;8.40;83.64;98037.80;105120;1289;25574;-79
2022/11/13 10:18:55;;;;;;;20.30;17.20;;;;;;;8.54;84.12;98036.50;105162;1281;22525;-80
2022/11/13 10:21:34;;;;;;;21.20;17.90;;;;;;;8.61;83.71;98032.33;105186;1305;22459;-80
2022/11/13 10:24:14;;;;;;;21.90;17.90;;;;;;;8.69;83.71;98027.32;105243;1306;22470;-80
2022/11/13 10:26:46;;;;;;;22.60;16.90;;;;;;;8.65;83.59;98017.65;105150;1303;22456;-80
2022/11/13 10:29:19;;;;;;;21.00;18.10;;;;;;;8.67;83.81;98017.16;105175;1289;22459;-80
2022/11/13 10:31:52;;;;;;;21.40;17.60;;;;;;;8.56;83.10;98014.61;105207;1287;22463;-80
2022/11/13 10:34:23;;;;;;;21.90;18.30;;;;;;;8.40;83.32;98014.38;105194;1303;24262;-80
2022/11/13 10:37:13;;;;;;;24.40;19.60;;;;;;;8.32;83.90;98015.38;105137;1288;25493;-80
2022/11/13 10:39:45;;;;;;;22.50;19.00;;;;;;;8.43;84.65;98013.47;105188;1302;22523;-80
2022/11/13 10:42:27;;;;;;;25.20;19.80;;;;;;;8.55;84.43;98007.70;105161;1302;22476;-81
2022/11/13 10:45:01;;;;;;;25.40;19.20;;;;;;;8.63;84.72;98012.50;105219;1302;22569;-80
2022/11/13 10:47:34;;;;;;;23.60;19.10;;;;;;;8.68;84.34;98010.27;105140;1295;23063;-80
2022/11/13 10:50:19;;;;;;;22.80;18.70;;;;;;;8.67;84.28;98010.50;105193;1303;25875;-81
2022/11/13 10:52:53;;;;;;;24.10;20.20;;;;;;;8.58;84.60;98009.05;105171;1303;24442;-80
2022/11/13 10:55:35;;;;;;;23.00;19.10;;;;;;;8.62;85.16;98004.69;105168;1297;25457;-81
2022/11/13 10:58:16;;;;;;;23.00;18.60;;;;;;;8.66;84.81;98004.73;105145;1298;22482;-80
2022/11/13 11:00:49;;;;;;;24.70;19.80;;;;;;;8.59;84.64;98002.58;105146;1303;22469;-81
2022/11/13 11:03:22;;;;;;;25.20;20.80;;;;;;;8.64;85.37;98004.04;105230;1303;24211;-80
2022/11/13 11:05:58;;;;;;;24.10;19.40;;;;;;;8.69;85.27;98003.16;105196;1288;22458;-80
2022/11/13 11:08:34;;;;;;;29.30;21.80;;;;;;;8.71;85.85;98001.34;105141;1279;22453;-80
2022/11/13 11:14:20;;;;;;;25.90;20.30;;;;;;;8.70;85.51;98006.57;105167;1301;22427;-80
2022/11/13 11:16:53;;;;;;;26.70;20.70;;;;;;;8.67;85.45;98007.55;105142;1290;27104;-80
2022/11/13 11:19:29;;;;;;;26.90;20.40;;;;;;;8.64;85.73;98003.38;105179;1295;22646;-80
2022/11/13 11:22:07;;;;;;;29.20;23.20;;;;;;;8.64;85.93;98006.32;105189;1303;22489;-81
2022/11/13 11:24:42;;;;;;;26.90;22.60;;;;;;;8.56;85.66;98008.41;105185;1301;22520;-80
2022/11/13 11:27:21;;;;;;;28.60;23.40;;;;;;;8.56;86.14;97999.80;105148;1301;26150;-80
2022/11/13 11:29:59;;;;;;;28.20;23.00;;;;;;;8.79;86.76;97993.75;105137;1280;22482;-80
2022/11/13 11:32:35;;;;;;;27.20;22.50;;;;;;;8.97;86.15;97995.59;105165;1296;22454;-81
2022/11/13 11:35:16;;;;;;;28.00;22.60;;;;;;;9.12;86.10;97996.86;105169;1303;22472;-81
2022/11/13 11:37:54;;;;;;;28.70;22.80;;;;;;;9.07;84.95;97995.73;105122;1285;26135;-80
2022/11/13 11:40:32;;;;;;;27.00;21.40;;;;;;;8.70;84.77;97997.59;105171;1287;24905;-80
2022/11/13 11:43:14;;;;;;;29.90;23.60;;;;;;;8.65;85.68;97995.67;105191;1303;22493;-80
2022/11/13 11:45:49;;;;;;;27.40;21.90;;;;;;;8.83;86.06;97994.52;105166;1295;22501;-80
2022/11/13 11:48:26;;;;;;;27.90;22.50;;;;;;;9.01;85.80;97992.29;105159;1303;24294;-80
2022/11/13 11:51:04;;;;;;;27.10;22.40;;;;;;;8.98;85.64;97983.34;105181;1298;25457;-80
2022/11/13 11:53:47;;;;;;;26.70;20.80;;;;;;;9.09;85.66;97978.96;105230;1281;22458;-80